createdAt,value
2018-02-09T00:00:49.551Z,73.20
2018-02-09T00:03:16.985Z,73.50
2018-02-09T00:05:44.412Z,73.00
2018-02-09T00:08:12.612Z,73.50
2018-02-09T00:10:40.032Z,73.50
2018-02-09T00:13:08.237Z,72.80
2018-02-09T00:15:35.693Z,72.70
2018-02-09T00:18:03.124Z,72.80
2018-02-09T00:20:31.308Z,72.50
2018-02-09T00:22:59.518Z,71.90
2018-02-09T00:25:26.941Z,71.90
2018-02-09T00:27:55.196Z,70.50
2018-02-09T00:30:22.628Z,70.50
2018-02-09T00:32:50.056Z,71.00
2018-02-09T00:35:17.488Z,71.40
2018-02-09T00:37:45.679Z,71.60
2018-02-09T00:40:13.108Z,71.40
2018-02-09T00:42:41.296Z,71.80
2018-02-09T00:45:09.491Z,71.70
2018-02-09T00:47:36.923Z,71.70
2018-02-09T00:50:04.391Z,72.20
2018-02-09T00:52:31.813Z,72.30
2018-02-09T00:54:59.240Z,72.50
2018-02-09T00:57:26.677Z,72.60
2018-02-09T00:59:54.261Z,72.70
2018-02-09T01:02:21.688Z,73.60
2018-02-09T01:04:49.116Z,73.70
2018-02-09T01:07:16.548Z,73.40
2018-02-09T01:09:43.977Z,74.00
2018-02-09T01:12:11.577Z,74.00
2018-02-09T01:14:38.988Z,73.70
2018-02-09T01:17:06.429Z,73.20
2018-02-09T01:19:34.625Z,73.40
2018-02-09T01:22:02.056Z,73.40
2018-02-09T01:24:30.306Z,72.80
2018-02-09T01:26:57.727Z,72.70
2018-02-09T01:29:25.173Z,72.20
2018-02-09T01:31:52.583Z,72.20
2018-02-09T01:34:20.017Z,72.40
2018-02-09T01:36:47.522Z,71.70
2018-02-09T01:39:15.706Z,71.90
2018-02-09T01:41:43.127Z,71.80
2018-02-09T01:44:10.558Z,72.10
2018-02-09T01:46:37.980Z,71.60
2018-02-09T01:49:05.412Z,72.10
2018-02-09T01:51:33.604Z,72.10
2018-02-09T01:54:01.036Z,72.10
2018-02-09T01:56:29.224Z,72.90
2018-02-09T01:58:57.480Z,73.00
2018-02-09T02:01:24.887Z,72.90
2018-02-09T02:03:52.312Z,73.40
2018-02-09T02:06:20.518Z,74.50
2018-02-09T02:08:47.941Z,74.40
2018-02-09T02:11:16.136Z,75.20
2018-02-09T02:13:43.559Z,75.10
2018-02-09T02:16:11.024Z,75.70
2018-02-09T02:18:39.212Z,76.50
2018-02-09T02:21:07.428Z,76.20
2018-02-09T02:23:34.937Z,76.20
2018-02-09T02:26:03.136Z,75.10
2018-02-09T02:28:30.560Z,75.10
2018-02-09T02:30:57.992Z,75.50
2018-02-09T02:33:25.426Z,75.00
2018-02-09T02:35:52.856Z,74.60
2018-02-09T02:38:20.280Z,74.30
2018-02-09T02:40:48.381Z,74.50
2018-02-09T02:43:16.569Z,75.30
2018-02-09T02:45:43.996Z,75.30
2018-02-09T02:48:13.111Z,75.60
2018-02-09T02:50:41.302Z,75.30
2018-02-09T02:53:08.737Z,75.30
2018-02-09T02:55:36.927Z,75.30
2018-02-09T02:58:04.355Z,75.30
2018-02-09T03:00:31.849Z,76.30
2018-02-09T03:02:59.223Z,77.00
2018-02-09T03:05:26.640Z,76.70
2018-02-09T03:07:54.956Z,77.70
2018-02-09T03:10:22.407Z,77.70
2018-02-09T03:12:49.860Z,77.80
2018-02-09T03:15:17.591Z,77.90
2018-02-09T03:17:45.003Z,78.20
2018-02-09T03:20:12.665Z,77.90
2018-02-09T03:22:40.101Z,77.90
2018-02-09T03:25:08.269Z,78.10
2018-02-09T03:27:35.688Z,79.00
2018-02-09T03:30:03.113Z,79.40
2018-02-09T03:32:30.550Z,78.80
2018-02-09T03:34:57.978Z,78.30
2018-02-09T03:37:26.164Z,77.80
2018-02-09T03:39:53.597Z,77.80
2018-02-09T03:42:21.780Z,77.50
2018-02-09T03:44:49.977Z,76.20
2018-02-09T03:47:17.401Z,76.20
2018-02-09T03:49:45.609Z,75.30
2018-02-09T03:52:13.032Z,75.20
2018-02-09T03:54:41.231Z,75.10
2018-02-09T03:57:08.669Z,75.10
2018-02-09T03:59:37.602Z,74.90
2018-02-09T04:02:05.024Z,74.90
2018-02-09T04:04:33.220Z,74.50
2018-02-09T04:07:00.647Z,74.40
2018-02-09T04:09:28.853Z,74.60
2018-02-09T04:11:56.377Z,74.60
2018-02-09T04:14:23.797Z,74.30
2018-02-09T04:16:51.239Z,73.60
2018-02-09T04:19:18.673Z,73.50
2018-02-09T04:21:46.096Z,73.50
2018-02-09T04:24:13.554Z,72.60
2018-02-09T04:26:41.016Z,71.80
2018-02-09T04:29:08.442Z,72.50
2018-02-09T04:31:35.964Z,73.00
2018-02-09T04:34:03.384Z,73.20
2018-02-09T04:36:30.820Z,72.90
2018-02-09T04:38:58.241Z,72.60
2018-02-09T04:41:25.671Z,73.20
2018-02-09T04:43:53.886Z,73.10
2018-02-09T04:46:21.312Z,73.10
2018-02-09T04:48:49.504Z,72.50
2018-02-09T04:51:16.939Z,72.40
2018-02-09T04:53:45.133Z,72.70
2018-02-09T04:56:12.854Z,72.60
2018-02-09T04:58:40.277Z,72.90
2018-02-09T05:01:07.720Z,73.60
2018-02-09T05:03:35.144Z,73.90
2018-02-09T05:06:03.337Z,72.70
2018-02-09T05:08:30.777Z,72.50
2018-02-09T05:10:59.112Z,73.00
2018-02-09T05:13:26.553Z,72.90
2018-02-09T05:15:54.197Z,73.90
2018-02-09T05:18:21.661Z,74.60
2018-02-09T05:20:49.095Z,75.40
2018-02-09T05:23:17.290Z,74.90
2018-02-09T05:25:44.707Z,74.80
2018-02-09T05:28:13.651Z,75.70
2018-02-09T05:30:41.083Z,75.60
2018-02-09T05:33:09.285Z,77.70
2018-02-09T05:35:36.792Z,77.70
2018-02-09T05:38:04.228Z,78.80
2018-02-09T05:40:31.658Z,78.70
2018-02-09T05:42:59.095Z,79.10
2018-02-09T05:45:26.541Z,78.70
2018-02-09T05:47:54.748Z,79.70
2018-02-09T05:50:22.167Z,79.50
2018-02-09T05:52:50.376Z,79.90
2018-02-09T05:55:17.808Z,79.90
2018-02-09T05:57:45.991Z,80.50
2018-02-09T06:00:13.420Z,80.50
2018-02-09T06:02:40.853Z,81.20
2018-02-09T06:05:08.343Z,81.60
2018-02-09T06:07:35.812Z,82.30
2018-02-09T06:10:03.308Z,82.30
2018-02-09T06:12:30.728Z,81.80
2018-02-09T06:14:58.920Z,82.10
2018-02-09T06:17:26.353Z,82.10
2018-02-09T06:19:54.548Z,81.60
2018-02-09T06:22:21.981Z,81.50
2018-02-09T06:24:50.180Z,81.80
2018-02-09T06:27:17.619Z,81.70
2018-02-09T06:29:45.810Z,81.20
2018-02-09T06:32:13.255Z,81.20
2018-02-09T06:34:41.437Z,82.10
2018-02-09T06:37:08.880Z,82.00
2018-02-09T06:39:37.067Z,82.40
2018-02-09T06:42:04.516Z,82.30
2018-02-09T06:44:32.704Z,83.30
2018-02-09T06:47:00.903Z,83.30
2018-02-09T06:49:28.341Z,83.30
2018-02-09T06:51:55.778Z,82.80
2018-02-09T06:54:23.989Z,84.50
2018-02-09T06:56:51.445Z,84.40
2018-02-09T06:59:18.864Z,83.90
2018-02-09T07:01:47.068Z,83.40
2018-02-09T07:04:14.529Z,83.40
2018-02-09T07:06:41.984Z,83.70
2018-02-09T07:09:09.417Z,83.30
2018-02-09T07:11:37.640Z,83.40
2018-02-09T07:14:05.105Z,83.30
2018-02-09T07:16:33.211Z,83.30
2018-02-09T07:19:00.661Z,82.90
2018-02-09T07:21:28.093Z,81.80
2018-02-09T07:26:29.318Z,82.10
2018-02-09T07:28:56.804Z,82.00
2018-02-09T07:31:24.239Z,82.00
2018-02-09T07:33:51.700Z,82.40
2018-02-09T07:36:19.115Z,82.70
2018-02-09T07:38:46.553Z,83.60
2018-02-09T07:41:13.990Z,83.50
2018-02-09T07:43:41.436Z,83.00
2018-02-09T07:46:08.870Z,83.20
2018-02-09T07:48:36.369Z,83.00
2018-02-09T07:51:03.827Z,83.60
2018-02-09T07:53:31.252Z,84.00
2018-02-09T07:55:58.717Z,83.30
2018-02-09T07:58:26.175Z,83.40
2018-02-09T08:00:54.359Z,82.50
2018-02-09T08:03:21.789Z,82.50
2018-02-09T08:05:49.997Z,81.20
2018-02-09T08:08:17.583Z,81.10
2018-02-09T08:10:45.009Z,81.00
2018-02-09T08:13:13.172Z,80.30
2018-02-09T08:15:40.609Z,79.50
2018-02-09T08:18:08.824Z,77.20
2018-02-09T08:20:36.276Z,77.20
2018-02-09T08:23:03.721Z,76.60
2018-02-09T08:25:31.147Z,74.70
2018-02-09T08:27:59.344Z,74.00
2018-02-09T08:30:26.768Z,73.90
2018-02-09T08:32:54.217Z,73.30
2018-02-09T08:35:21.649Z,71.80
2018-02-09T08:37:49.084Z,68.90
2018-02-09T08:40:16.512Z,69.20
2018-02-09T08:42:44.745Z,67.50
2018-02-09T08:45:12.169Z,67.30
2018-02-09T08:47:39.680Z,67.10
2018-02-09T08:50:07.113Z,66.00
2018-02-09T08:52:34.576Z,64.30
2018-02-09T08:55:02.000Z,63.30
2018-02-09T08:57:29.445Z,63.00
2018-02-09T08:59:56.872Z,63.20
2018-02-09T09:02:24.318Z,61.80
2018-02-09T09:04:51.739Z,61.40
2018-02-09T09:07:19.205Z,61.00
2018-02-09T09:09:46.643Z,63.70
2018-02-09T09:12:15.566Z,61.30
2018-02-09T09:14:43.039Z,59.80
2018-02-09T09:17:10.428Z,60.00
2018-02-09T09:19:38.766Z,59.20
2018-02-09T09:22:06.209Z,59.10
2018-02-09T09:24:33.644Z,57.30
2018-02-09T09:27:01.086Z,57.00
2018-02-09T09:29:29.288Z,57.10
2018-02-09T09:31:56.733Z,57.10
2018-02-09T09:34:24.164Z,56.40
2018-02-09T09:36:52.985Z,57.70
2018-02-09T09:39:21.163Z,57.10
2018-02-09T09:41:49.720Z,57.00
2018-02-09T09:44:17.959Z,55.30
2018-02-09T09:46:45.381Z,55.20
2018-02-09T09:49:13.764Z,53.10
2018-02-09T09:51:41.195Z,52.40
2018-02-09T09:54:08.660Z,51.20
2018-02-09T09:56:36.111Z,50.50
2018-02-09T09:59:03.545Z,49.00
2018-02-09T10:01:31.764Z,49.70
2018-02-09T10:03:59.296Z,49.60
2018-02-09T10:06:27.500Z,46.30
2018-02-09T10:08:54.943Z,46.20
2018-02-09T10:11:22.632Z,45.00
2018-02-09T10:13:50.061Z,43.80
2018-02-09T10:16:17.509Z,44.70
2018-02-09T10:18:45.716Z,47.10
2018-02-09T10:21:13.714Z,47.00
2018-02-09T10:23:41.190Z,47.90
2018-02-09T10:26:09.404Z,45.10
2018-02-09T10:28:36.876Z,45.10
2018-02-09T10:31:04.347Z,48.00
2018-02-09T10:33:31.789Z,51.60
2018-02-09T10:35:59.289Z,53.20
2018-02-09T10:38:26.727Z,52.80
2018-02-09T10:40:54.181Z,51.60
2018-02-09T10:43:21.604Z,52.80
2018-02-09T10:45:49.025Z,53.50
2018-02-09T10:48:16.458Z,51.50
2018-02-09T10:50:43.878Z,51.70
2018-02-09T10:53:11.327Z,52.70
2018-02-09T10:55:38.753Z,53.90
2018-02-09T10:58:06.192Z,54.20
2018-02-09T11:00:39.361Z,51.80
2018-02-09T11:03:06.828Z,49.50
2018-02-09T11:05:34.265Z,48.10
2018-02-09T11:08:01.714Z,47.30
2018-02-09T11:10:32.997Z,47.40
2018-02-09T11:13:00.534Z,47.40
2018-02-09T11:15:28.000Z,47.80
2018-02-09T11:17:55.448Z,48.40
2018-02-09T11:20:22.903Z,49.60
2018-02-09T11:22:50.315Z,48.10
2018-02-09T11:25:18.534Z,48.50
2018-02-09T11:27:45.963Z,48.40
2018-02-09T11:30:13.884Z,50.80
2018-02-09T11:32:41.336Z,51.50
2018-02-09T11:35:08.812Z,50.60
2018-02-09T11:37:36.216Z,52.20
2018-02-09T11:40:03.699Z,51.90
2018-02-09T11:42:31.120Z,51.90
2018-02-09T11:44:59.333Z,51.20
2018-02-09T11:47:26.776Z,51.20
2018-02-09T11:49:54.204Z,50.40
2018-02-09T11:52:22.410Z,48.50
2018-02-09T11:54:49.869Z,48.40
2018-02-09T11:57:17.304Z,47.20
2018-02-09T11:59:44.780Z,46.90
2018-02-09T12:02:12.210Z,46.00
2018-02-09T12:04:40.479Z,44.80
2018-02-09T12:07:08.694Z,44.00
2018-02-09T12:09:36.128Z,44.00
2018-02-09T12:12:03.566Z,44.60
2018-02-09T12:14:31.764Z,43.70
2018-02-09T12:16:59.210Z,43.60
2018-02-09T12:19:27.396Z,43.30
2018-02-09T12:21:54.837Z,43.20
2018-02-09T12:24:22.273Z,43.00
2018-02-09T12:26:49.713Z,42.00
2018-02-09T12:29:17.157Z,42.30
2018-02-09T12:31:44.594Z,42.10
2018-02-09T12:34:12.038Z,42.70
2018-02-09T12:36:40.244Z,42.10
2018-02-09T12:39:07.818Z,42.10
2018-02-09T12:41:35.262Z,41.80
2018-02-09T12:44:02.698Z,43.70
2018-02-09T12:46:30.184Z,44.60
2018-02-09T12:48:58.384Z,47.20
2018-02-09T12:51:25.829Z,47.20
2018-02-09T12:53:53.264Z,48.20
2018-02-09T12:56:20.718Z,49.20
2018-02-09T12:58:48.152Z,50.60
2018-02-09T13:01:15.585Z,52.40
2018-02-09T13:03:43.014Z,53.60
2018-02-09T13:06:10.451Z,54.70
2018-02-09T13:08:37.885Z,55.40
2018-02-09T13:11:05.329Z,57.10
2018-02-09T13:13:32.745Z,58.70
2018-02-09T13:16:00.181Z,59.10
2018-02-09T13:18:39.621Z,60.00
2018-02-09T13:21:07.056Z,60.20
2018-02-09T13:23:46.420Z,60.00
2018-02-09T13:26:14.442Z,60.00
2018-02-09T13:28:54.744Z,56.90
2018-02-09T13:31:22.247Z,56.80
2018-02-09T13:33:50.441Z,57.10
2018-02-09T13:36:18.645Z,54.90
2018-02-09T13:38:46.072Z,54.90
2018-02-09T13:41:15.184Z,55.70
2018-02-09T13:43:44.198Z,54.60
2018-02-09T13:46:11.626Z,54.60
2018-02-09T13:48:39.845Z,52.20
2018-02-09T13:51:07.273Z,52.20
2018-02-09T13:53:34.728Z,52.30
2018-02-09T13:56:02.172Z,51.10
2018-02-09T13:58:29.612Z,49.70
2018-02-09T14:00:57.808Z,50.20
2018-02-09T14:03:25.293Z,50.10
2018-02-09T14:05:52.698Z,50.30
2018-02-09T14:08:20.141Z,52.70
2018-02-09T14:10:47.564Z,52.80
2018-02-09T14:13:14.996Z,52.60
2018-02-09T14:15:42.433Z,51.20
2018-02-09T14:18:10.637Z,51.40
2018-02-09T14:20:38.085Z,51.30
2018-02-09T14:23:05.521Z,50.90
2018-02-09T14:25:33.737Z,50.50
2018-02-09T14:28:01.363Z,50.40
2018-02-09T14:30:28.780Z,50.60
2018-02-09T14:32:56.216Z,52.20
2018-02-09T14:35:23.637Z,52.50
2018-02-09T14:37:51.865Z,51.10
2018-02-09T14:40:19.308Z,51.10
2018-02-09T14:42:46.738Z,50.90
2018-02-09T14:45:14.663Z,50.60
2018-02-09T14:47:42.160Z,52.60
2018-02-09T14:50:10.364Z,53.40
2018-02-09T14:52:37.820Z,53.30
2018-02-09T14:55:05.252Z,54.20
2018-02-09T14:57:33.457Z,56.30
2018-02-09T15:00:00.896Z,56.20
2018-02-09T15:02:28.335Z,55.90
2018-02-09T15:04:56.532Z,55.90
2018-02-09T15:07:23.969Z,55.80
2018-02-09T15:09:52.161Z,56.70
2018-02-09T15:12:19.594Z,56.60
2018-02-09T15:14:47.813Z,57.60
2018-02-09T15:17:15.276Z,57.60
2018-02-09T15:19:42.713Z,58.50
2018-02-09T15:22:10.181Z,58.40
2018-02-09T15:24:37.596Z,58.20
2018-02-09T15:27:05.804Z,58.90
2018-02-09T15:29:33.227Z,58.90
2018-02-09T15:32:01.449Z,62.10
2018-02-09T15:34:28.896Z,61.40
2018-02-09T15:36:56.308Z,63.00
2018-02-09T15:39:23.748Z,63.20
2018-02-09T15:41:51.262Z,65.00
2018-02-09T15:44:19.441Z,63.80
2018-02-09T15:46:46.894Z,63.80
2018-02-09T15:49:15.261Z,63.90
2018-02-09T15:51:43.455Z,62.70
2018-02-09T15:54:10.900Z,62.50
2018-02-09T15:56:38.378Z,64.40
2018-02-09T15:59:05.822Z,64.70
2018-02-09T16:01:33.257Z,65.60
2018-02-09T16:04:01.460Z,66.50
2018-02-09T16:06:28.888Z,66.50
2018-02-09T16:08:57.105Z,66.90
2018-02-09T16:11:24.588Z,66.90
2018-02-09T16:13:51.977Z,68.00
2018-02-09T16:16:20.176Z,67.80
2018-02-09T16:18:47.604Z,67.80
2018-02-09T16:21:16.714Z,68.00
2018-02-09T16:23:44.912Z,69.10
2018-02-09T16:26:12.364Z,69.10
2018-02-09T16:28:39.788Z,70.00
2018-02-09T16:31:08.005Z,71.60
2018-02-09T16:33:35.428Z,71.60
2018-02-09T16:36:03.633Z,72.50
2018-02-09T16:38:31.070Z,72.50
2018-02-09T16:40:59.242Z,72.50
2018-02-09T16:43:27.433Z,72.70
2018-02-09T16:45:54.961Z,72.50
2018-02-09T16:48:22.388Z,72.70
2018-02-09T16:50:49.801Z,73.70
2018-02-09T16:53:17.240Z,73.50
2018-02-09T16:55:45.448Z,74.20
2018-02-09T16:58:12.876Z,74.10
2018-02-09T17:00:41.080Z,75.00
2018-02-09T17:03:08.553Z,74.20
2018-02-09T17:05:35.981Z,73.90
2018-02-09T17:08:03.454Z,74.00
2018-02-09T17:10:30.880Z,75.60
2018-02-09T17:12:59.072Z,74.90
2018-02-09T17:15:26.495Z,74.90
2018-02-09T17:17:53.944Z,75.20
2018-02-09T17:20:21.378Z,75.40
2018-02-09T17:22:48.820Z,76.10
2018-02-09T17:25:16.408Z,75.60
2018-02-09T17:27:43.864Z,75.40
2018-02-09T17:30:11.308Z,73.30
2018-02-09T17:32:38.755Z,74.00
2018-02-09T17:35:06.241Z,75.10
2018-02-09T17:37:33.664Z,74.50
2018-02-09T17:40:01.095Z,73.80
2018-02-09T17:42:29.302Z,74.40
2018-02-09T17:44:56.730Z,74.40
2018-02-09T17:47:24.156Z,75.40
2018-02-09T17:49:51.608Z,75.70
2018-02-09T17:52:19.040Z,75.80
2018-02-09T17:54:46.517Z,74.80
2018-02-09T17:57:14.750Z,74.40
2018-02-09T17:59:42.170Z,74.20
2018-02-09T18:02:09.590Z,74.20
2018-02-09T18:04:37.025Z,76.20
2018-02-09T18:07:04.448Z,76.80
2018-02-09T18:09:32.644Z,76.40
2018-02-09T18:12:00.064Z,76.30
2018-02-09T18:14:27.511Z,76.30
2018-02-09T18:16:54.955Z,75.80
2018-02-09T18:19:22.399Z,76.70
2018-02-09T18:21:49.846Z,76.00
2018-02-09T18:24:17.286Z,76.10
2018-02-09T18:26:44.737Z,76.10
2018-02-09T18:29:12.931Z,76.30
2018-02-09T18:31:40.360Z,76.20
2018-02-09T18:34:08.549Z,75.90
2018-02-09T18:36:35.994Z,75.90
2018-02-09T18:39:04.183Z,76.90
2018-02-09T18:41:31.658Z,76.90
2018-02-09T18:43:59.086Z,77.60
2018-02-09T18:46:28.219Z,77.40
2018-02-09T18:48:55.649Z,77.30
2018-02-09T18:51:23.089Z,76.40
2018-02-09T18:53:51.301Z,77.60
2018-02-09T18:56:18.733Z,77.50
2018-02-09T18:58:46.954Z,77.50
2018-02-09T19:01:14.400Z,77.50
2018-02-09T19:03:41.829Z,77.40
2018-02-09T19:06:09.260Z,77.40
2018-02-09T19:08:37.474Z,77.70
2018-02-09T19:11:04.937Z,76.80
2018-02-09T19:13:32.348Z,77.10
2018-02-09T19:15:59.786Z,76.80
2018-02-09T19:18:27.252Z,77.00
2018-02-09T19:20:54.676Z,77.40
2018-02-09T19:23:22.120Z,77.70
2018-02-09T19:25:49.524Z,77.90
2018-02-09T19:28:16.957Z,77.90
2018-02-09T19:30:44.398Z,77.70
2018-02-09T19:33:11.824Z,77.60
2018-02-09T19:35:40.029Z,78.90
2018-02-09T19:38:07.465Z,78.90
2018-02-09T19:40:35.659Z,80.40
2018-02-09T19:43:03.081Z,80.30
2018-02-09T19:45:31.334Z,81.90
2018-02-09T19:47:58.700Z,81.90
2018-02-09T19:50:26.144Z,82.10
2018-02-09T19:52:53.602Z,82.90
2018-02-09T19:55:21.030Z,82.50
2018-02-09T19:57:48.457Z,82.00
2018-02-09T20:00:15.884Z,82.90
2018-02-09T20:02:43.320Z,83.40
2018-02-09T20:05:10.749Z,82.60
2018-02-09T20:07:38.185Z,81.70
2018-02-09T20:10:05.627Z,80.60
2018-02-09T20:12:33.815Z,79.60
2018-02-09T20:15:01.287Z,79.60
2018-02-09T20:17:28.711Z,79.30
2018-02-09T20:19:56.149Z,78.40
2018-02-09T20:22:23.628Z,78.30
2018-02-09T20:24:51.030Z,78.10
2018-02-09T20:27:18.481Z,77.80
2018-02-09T20:29:45.907Z,78.00
2018-02-09T20:32:14.096Z,79.10
2018-02-09T20:34:41.521Z,79.10
2018-02-09T20:37:08.956Z,79.80
2018-02-09T20:39:36.392Z,79.20
2018-02-09T20:42:03.825Z,79.30
2018-02-09T20:44:31.249Z,79.00
2018-02-09T20:46:58.680Z,78.60
2018-02-09T20:49:26.123Z,79.70
2018-02-09T20:51:53.544Z,79.20
2018-02-09T20:54:21.749Z,79.50
2018-02-09T20:56:49.192Z,79.50
2018-02-09T20:59:16.686Z,79.40
2018-02-09T21:01:44.917Z,79.30
2018-02-09T21:04:12.361Z,78.70
2018-02-09T21:06:40.552Z,78.00
2018-02-09T21:09:07.980Z,78.00
2018-02-09T21:11:36.181Z,78.40
2018-02-09T21:14:03.628Z,78.40
2018-02-09T21:16:31.836Z,78.90
2018-02-09T21:18:59.272Z,78.90
2018-02-09T21:21:26.700Z,78.20
2018-02-09T21:23:54.168Z,78.20
2018-02-09T21:26:22.334Z,77.40
2018-02-09T21:28:49.758Z,77.60
2018-02-09T21:31:17.206Z,77.70
2018-02-09T21:33:44.622Z,77.60
2018-02-09T21:36:12.826Z,79.70
2018-02-09T21:38:40.249Z,79.60
2018-02-09T21:41:08.440Z,78.30
2018-02-09T21:43:35.904Z,78.30
2018-02-09T21:46:03.332Z,78.00
2018-02-09T21:48:31.552Z,77.60
2018-02-09T21:50:59.736Z,76.90
2018-02-09T21:53:27.185Z,76.90
2018-02-09T21:55:54.629Z,77.00
2018-02-09T21:58:22.046Z,77.70
2018-02-09T22:00:49.480Z,77.50
2018-02-09T22:03:16.920Z,78.10
2018-02-09T22:05:44.381Z,78.00
2018-02-09T22:08:11.825Z,78.60
2018-02-09T22:10:39.252Z,79.80
2018-02-09T22:13:07.457Z,79.20
2018-02-09T22:15:34.875Z,79.20
2018-02-09T22:18:03.077Z,80.40
2018-02-09T22:20:30.525Z,80.40
2018-02-09T22:22:58.758Z,80.40
2018-02-09T22:25:26.139Z,80.20
2018-02-09T22:27:54.351Z,81.00
2018-02-09T22:30:21.790Z,81.00
2018-02-09T22:32:49.232Z,81.20
2018-02-09T22:35:17.449Z,81.30
2018-02-09T22:37:44.878Z,81.20
2018-02-09T22:40:12.307Z,80.90
2018-02-09T22:42:39.734Z,82.50
2018-02-09T22:45:07.181Z,82.90
2018-02-09T22:47:34.632Z,83.20
2018-02-09T22:50:02.091Z,83.80
2018-02-09T22:52:29.867Z,83.60
2018-02-09T22:54:57.291Z,83.50
2018-02-09T22:57:24.736Z,84.10
2018-02-09T22:59:52.948Z,82.70
2018-02-09T23:02:20.391Z,82.80
2018-02-09T23:04:47.841Z,82.30
2018-02-09T23:07:16.037Z,80.90
2018-02-09T23:09:43.484Z,80.90
2018-02-09T23:12:10.914Z,81.20
2018-02-09T23:14:39.129Z,81.60
2018-02-09T23:17:06.577Z,81.60
2018-02-09T23:19:34.025Z,81.40
2018-02-09T23:22:01.481Z,81.00
2018-02-09T23:24:29.665Z,80.90
2018-02-09T23:26:57.113Z,80.80
2018-02-09T23:29:24.546Z,81.40
2018-02-09T23:31:52.737Z,82.00
2018-02-09T23:34:20.200Z,82.00
2018-02-09T23:36:48.400Z,82.40
2018-02-09T23:39:15.833Z,82.40
2018-02-09T23:41:43.262Z,82.70
2018-02-09T23:44:11.486Z,83.40
2018-02-09T23:46:38.917Z,82.50
2018-02-09T23:49:06.356Z,83.20
2018-02-09T23:51:34.572Z,82.20
2018-02-09T23:54:02.038Z,82.10
2018-02-09T23:56:29.894Z,83.00
2018-02-09T23:58:57.484Z,83.00
